Time;durP1;ratioP1;P1;durP2;ratioP2;P2;SDS_P1;SDS_P2;PMS_P1;PMS_P2;Temp;Humidity;BMP_temperature;BMP_pressure;BME280_temperature;BME280_humidity;BME280_pressure;Samples;Min_cycle;Max_cycle;Signal;HPM_P1;HPM_P2
2022/01/24 00:00:24;;;;;;;;;;;2.90;97.00;;;2.33;100.00;100779.34;5094781;28;19924;-59
2022/01/24 00:02:50;;;;;;;;;;;2.90;97.10;;;2.46;100.00;100795.28;5095106;28;19943;-59
2022/01/24 00:05:19;;;;;;;;;;;2.90;97.20;;;2.45;100.00;100785.97;5076788;28;19926;-59
2022/01/24 00:07:45;;;;;;;;;;;2.90;97.30;;;2.55;100.00;100797.69;5077048;28;19931;-59
2022/01/24 00:10:16;;;;;;;;;;;3.00;97.20;;;2.56;100.00;100794.25;5059906;28;19920;-59
2022/01/24 00:15:54;;;;;;;;;;;3.00;96.70;;;1.99;100.00;100686.56;5094861;28;19993;-59
2022/01/24 00:18:25;;;;;;;;;;;3.00;96.70;;;2.59;100.00;100789.13;5093721;28;20456;-59
2022/01/24 00:26:46;;;;;;;;;;;2.80;96.20;;;1.86;100.00;100730.03;5047705;28;19920;-59
2022/01/24 00:29:14;;;;;;;;;;;2.70;96.40;;;1.96;100.00;100781.66;5063040;28;20301;-59
2022/01/24 00:31:39;;;;;;;;;;;2.60;96.90;;;1.40;100.00;100689.16;5076211;28;19924;-59
2022/01/24 00:34:05;;;;;;;;;;;2.50;96.70;;;1.65;100.00;100730.34;5094237;28;19950;-59
2022/01/24 00:36:31;;;;;;;;;;;2.50;97.00;;;1.92;100.00;100767.28;5094586;28;19920;-59
2022/01/24 00:38:57;;;;;;;;;;;2.40;97.30;;;1.90;100.00;100761.34;5094174;28;20379;-59
2022/01/24 00:41:23;;;;;;;;;;;2.40;97.50;;;1.90;100.00;100754.56;5093079;28;19986;-59
2022/01/24 00:46:39;;;;;;;;;;;2.40;97.70;;;1.90;100.00;100751.19;5078800;28;20027;-59
2022/01/24 00:57:02;;;;;;;;;;;2.40;98.30;;;1.49;100.00;100693.28;5078517;28;19942;-59
2022/01/24 00:59:28;;;;;;;;;;;2.40;98.50;;;1.76;100.00;100759.03;5075631;28;19931;-59
2022/01/24 01:01:54;;;;;;;;;;;2.30;98.60;;;1.80;100.00;100768.31;5075630;28;20285;-59
2022/01/24 01:04:24;;;;;;;;;;;2.30;98.60;;;1.75;100.00;100759.03;5093811;28;19924;-59
2022/01/24 01:06:50;;;;;;;;;;;2.30;98.70;;;1.83;100.00;100773.34;5076486;28;19920;-58
2022/01/24 01:20:39;;;;;;;;;;;2.10;98.80;;;1.77;100.00;100780.22;5071439;28;19982;-59
2022/01/24 01:23:05;;;;;;;;;;;2.20;99.10;;;1.79;100.00;100784.44;5076810;28;20365;-59
2022/01/24 01:25:31;;;;;;;;;;;2.20;99.10;;;1.83;100.00;100787.75;5075647;28;19920;-59
2022/01/24 01:27:57;;;;;;;;;;;2.20;99.10;;;1.62;100.00;100755.84;5075342;28;19974;-67
2022/01/24 01:30:34;;;;;;;;;;;2.20;99.10;;;1.48;100.00;100734.84;5074895;28;19924;-59
2022/01/24 01:33:09;;;;;;;;;;;2.30;99.10;;;1.36;100.00;100732.44;5093525;28;20084;-59
2022/01/24 01:54:46;;;;;;;;;;;2.00;99.20;;;1.49;100.00;100790.75;5077849;28;20334;-59
2022/01/24 01:57:18;;;;;;;;;;;2.00;99.20;;;1.42;100.00;100784.06;5078123;28;20338;-59
2022/01/24 01:59:44;;;;;;;;;;;1.90;99.30;;;1.41;100.00;100769.66;5058620;28;19931;-59
2022/01/24 02:02:10;;;;;;;;;;;1.90;99.50;;;1.45;100.00;100775.56;5058302;28;20276;-59
2022/01/24 02:04:35;;;;;;;;;;;1.90;99.50;;;1.48;100.00;100778.09;5075544;28;19920;-59
2022/01/24 02:07:02;;;;;;;;;;;1.90;99.60;;;1.50;100.00;100761.06;5092948;28;19920;-59
2022/01/24 02:09:29;;;;;;;;;;;1.90;99.70;;;1.47;100.00;100772.16;5093149;28;20408;-59
2022/01/24 02:11:55;;;;;;;;;;;2.00;99.80;;;1.52;100.00;100769.53;5075850;28;19927;-59
2022/01/24 02:14:23;;;;;;;;;;;2.00;99.60;;;1.05;100.00;100716.75;5096677;28;19920;-59
2022/01/24 02:16:58;;;;;;;;;;;1.90;99.50;;;1.37;100.00;100767.19;5079657;28;19921;-59
2022/01/24 02:19:50;;;;;;;;;;;1.90;99.50;;;0.96;100.00;100706.69;5096879;28;19951;-59
2022/01/24 02:25:07;;;;;;;;;;;1.80;99.60;;;1.25;100.00;100759.72;5096977;28;19943;-59
2022/01/24 02:27:43;;;;;;;;;;;1.80;99.90;;;1.33;100.00;100750.28;5081310;28;19920;-59
2022/01/24 02:32:39;;;;;;;;;;;1.80;99.80;;;1.39;100.00;100747.69;5096510;28;19964;-59
2022/01/24 02:35:06;;;;;;;;;;;1.90;99.90;;;1.44;100.00;100743.38;5045227;28;19970;-59
2022/01/24 02:37:31;;;;;;;;;;;1.90;99.80;;;1.50;100.00;100758.53;5078759;28;19920;-59
2022/01/24 02:40:16;;;;;;;;;;;1.90;99.80;;;1.51;100.00;100752.59;5096606;28;19946;-59
2022/01/24 02:46:07;;;;;;;;;;;1.90;99.70;;;1.45;100.00;100739.97;5080930;28;19962;-59
2022/01/24 02:48:33;;;;;;;;;;;1.90;99.70;;;1.53;100.00;100761.03;5096062;28;19963;-59
2022/01/24 02:53:33;;;;;;;;;;;1.90;99.70;;;1.32;100.00;100723.19;5096642;28;19927;-59
2022/01/24 02:55:59;;;;;;;;;;;1.90;99.60;;;1.61;100.00;100755.84;5096064;28;19969;-58
2022/01/24 02:58:25;;;;;;;;;;;2.00;99.00;;;1.57;100.00;100747.41;5096399;28;19928;-59
2022/01/24 03:00:51;;;;;;;;;;;2.10;98.60;;;1.58;100.00;100741.47;5061455;28;19924;-59
2022/01/24 03:03:17;;;;;;;;;;;2.00;98.30;;;1.45;100.00;100733.19;5095981;28;19924;-59
2022/01/24 03:05:43;;;;;;;;;;;2.00;98.20;;;1.51;100.00;100752.59;5078256;28;20026;-59
2022/01/24 03:08:09;;;;;;;;;;;1.90;98.10;;;1.37;100.00;100745.16;5077969;28;20348;-59
2022/01/24 03:10:41;;;;;;;;;;;1.90;98.10;;;1.34;100.00;100746.88;5061118;28;20007;-59
2022/01/24 03:15:49;;;;;;;;;;;1.80;98.30;;;1.09;100.00;100691.28;5064759;28;19927;-59
2022/01/24 03:18:15;;;;;;;;;;;1.80;98.50;;;1.16;100.00;100727.63;5060579;28;19916;-59
2022/01/24 03:20:41;;;;;;;;;;;1.80;98.60;;;0.85;100.00;100665.31;5077720;28;19920;-59
2022/01/24 03:23:07;;;;;;;;;;;1.70;98.40;;;1.21;100.00;100727.56;5060538;28;19923;-59
2022/01/24 03:25:33;;;;;;;;;;;1.70;98.40;;;1.14;100.00;100725.13;5077637;28;19974;-59
2022/01/24 03:27:58;;;;;;;;;;;1.70;98.50;;;1.13;100.00;100725.97;5076512;28;19916;-58
2022/01/24 03:30:24;;;;;;;;;;;1.60;98.50;;;1.05;100.00;100732.00;5095411;28;20276;-59
2022/01/24 03:32:50;;;;;;;;;;;1.60;98.50;;;0.86;100.00;100692.41;5095652;28;20284;-58
2022/01/24 03:35:16;;;;;;;;;;;1.60;98.50;;;1.12;100.00;100737.00;5077429;28;19916;-59
2022/01/24 03:37:42;;;;;;;;;;;1.50;98.50;;;1.13;100.00;100725.97;5095601;28;19993;-59
2022/01/24 03:40:08;;;;;;;;;;;1.50;98.60;;;1.09;100.00;100721.78;5077428;28;19927;-59
2022/01/24 03:42:34;;;;;;;;;;;1.50;98.70;;;0.86;100.00;100694.94;5095497;28;19920;-58
2022/01/24 03:45:04;;;;;;;;;;;1.50;98.70;;;0.99;100.00;100727.81;5061151;28;19921;-59
2022/01/24 03:47:42;;;;;;;;;;;1.50;98.60;;;0.98;100.00;100726.16;5077729;28;20372;-58
2022/01/24 03:50:16;;;;;;;;;;;1.50;98.60;;;0.93;100.00;100699.09;5095074;28;20266;-59
2022/01/24 03:52:43;;;;;;;;;;;1.50;98.60;;;1.15;100.00;100723.41;5095311;28;19927;-58
2022/01/24 03:55:09;;;;;;;;;;;1.50;98.70;;;1.26;100.00;100725.78;5094726;28;20327;-59
2022/01/24 03:57:35;;;;;;;;;;;1.50;98.50;;;1.27;100.00;100702.06;5077047;28;19926;-59
2022/01/24 04:00:00;;;;;;;;;;;1.50;98.50;;;1.26;100.00;100713.09;5076938;28;19969;-58
2022/01/24 04:02:27;;;;;;;;;;;1.60;98.50;;;1.08;100.00;100684.50;5060241;28;19924;-58
2022/01/24 04:04:53;;;;;;;;;;;1.70;98.10;;;0.86;100.00;100669.53;5076979;28;19920;-58
2022/01/24 04:07:19;;;;;;;;;;;1.60;97.50;;;1.05;100.00;100730.31;5076756;28;19924;-58
2022/01/24 04:09:45;;;;;;;;;;;1.40;97.30;;;0.84;100.00;100673.81;5076756;28;19920;-58
2022/01/24 04:12:11;;;;;;;;;;;1.50;97.60;;;1.04;100.00;100705.75;5076689;28;19970;-59
2022/01/24 04:14:42;;;;;;;;;;;1.40;97.60;;;0.98;100.00;100712.59;5060324;28;19924;-59
2022/01/24 04:22:10;;;;;;;;;;;1.40;98.20;;;1.01;100.00;100728.66;5077359;28;20297;-59
2022/01/24 04:24:36;;;;;;;;;;;1.40;98.20;;;1.05;100.00;100730.31;5094591;28;19962;-59
2022/01/24 04:27:02;;;;;;;;;;;1.40;98.10;;;1.07;100.00;100733.66;5076336;28;20262;-58
2022/01/24 04:29:28;;;;;;;;;;;1.40;98.10;;;0.95;100.00;100707.56;5093551;28;19928;-59
2022/01/24 04:31:54;;;;;;;;;;;1.40;98.20;;;1.09;100.00;100728.56;5094299;28;19928;-58
2022/01/24 04:34:19;;;;;;;;;;;1.40;98.20;;;0.98;100.00;100730.41;5093537;28;19920;-57
2022/01/24 04:36:45;;;;;;;;;;;1.30;98.20;;;0.90;100.00;100696.63;5075930;28;20377;-57
2022/01/24 04:39:11;;;;;;;;;;;1.30;98.20;;;0.93;100.00;100711.81;5094234;28;19920;-58
2022/01/24 04:41:40;;;;;;;;;;;1.40;98.20;;;1.06;100.00;100701.50;5059541;28;19927;-57
2022/01/24 04:47:17;;;;;;;;;;;1.30;98.20;;;0.47;100.00;100689.47;5062812;28;20420;-57
2022/01/24 04:53:01;;;;;;;;;;;1.30;97.80;;;0.98;100.00;100726.16;5031554;28;20314;-58
2022/01/24 04:55:27;;;;;;;;;;;1.30;97.80;;;0.78;100.00;100687.44;5087886;28;19958;-58
2022/01/24 04:57:52;;;;;;;;;;;1.40;97.70;;;0.97;100.00;100732.09;5094417;28;19921;-58
2022/01/24 05:00:18;;;;;;;;;;;1.30;97.60;;;0.95;100.00;100723.63;5075555;28;19924;-57
2022/01/24 05:02:44;;;;;;;;;;;1.30;97.60;;;1.04;100.00;100730.31;5075901;28;19920;-57
2022/01/24 05:05:15;;;;;;;;;;;1.30;97.70;;;0.83;100.00;100728.84;5093758;28;20328;-73
2022/01/24 05:07:41;;;;;;;;;;;1.30;97.70;;;0.99;100.00;100742.25;5060651;28;19916;-58
2022/01/24 05:10:23;;;;;;;;;;;1.30;97.80;;;1.01;100.00;100733.72;5093839;28;19950;-57
2022/01/24 05:23:34;;;;;;;;;;;1.20;97.60;;;0.84;100.00;100729.69;5093321;28;20295;-57
2022/01/24 05:26:00;;;;;;;;;;;1.20;97.70;;;0.60;100.00;100685.09;5076254;28;19921;-57
2022/01/24 05:28:27;;;;;;;;;;;1.20;97.70;;;0.60;100.00;100677.47;5075828;28;19920;-57
2022/01/24 05:30:52;;;;;;;;;;;1.20;97.70;;;0.88;100.00;100739.81;5093254;28;20028;-57
2022/01/24 05:33:18;;;;;;;;;;;1.20;97.70;;;0.89;100.00;100746.59;5075418;28;20381;-58
2022/01/24 05:35:44;;;;;;;;;;;1.20;97.70;;;0.52;100.00;100682.63;5093608;28;19920;-57
2022/01/24 05:38:10;;;;;;;;;;;1.20;97.70;;;0.95;100.00;100738.03;5075620;28;19920;-58
2022/01/24 05:40:36;;;;;;;;;;;1.30;97.80;;;0.95;100.00;100736.34;5093477;28;19926;-58
2022/01/24 05:43:02;;;;;;;;;;;1.30;97.80;;;0.86;100.00;100716.13;5093493;28;19920;-57
2022/01/24 05:45:28;;;;;;;;;;;1.30;97.70;;;0.51;100.00;100658.09;5093626;28;19921;-57
2022/01/24 05:47:54;;;;;;;;;;;1.30;97.60;;;0.58;100.00;100704.56;5046179;28;20385;-57
2022/01/24 05:50:19;;;;;;;;;;;1.30;97.50;;;0.85;100.00;100729.69;5079327;28;19924;-57
2022/01/24 05:52:45;;;;;;;;;;;1.30;97.50;;;0.94;100.00;100731.28;5079572;28;19920;-57
2022/01/24 05:55:11;;;;;;;;;;;1.30;97.50;;;0.57;100.00;100678.34;5079558;28;19985;-57
2022/01/24 05:57:37;;;;;;;;;;;1.30;97.60;;;0.43;100.00;100685.25;5079443;28;19920;-58
2022/01/24 06:00:07;;;;;;;;;;;1.30;97.60;;;0.79;100.00;100724.66;5062940;28;19932;-57
2022/01/24 06:02:33;;;;;;;;;;;1.30;97.60;;;0.62;100.00;100670.69;5079375;28;20164;-57
2022/01/24 06:04:59;;;;;;;;;;;1.30;97.60;;;0.89;100.00;100713.56;5079824;28;19920;-58
2022/01/24 06:07:24;;;;;;;;;;;1.30;97.60;;;0.93;100.00;100722.81;5097236;28;19924;-58
2022/01/24 06:09:50;;;;;;;;;;;1.30;97.50;;;0.73;100.00;100699.34;5097292;28;19920;-57
2022/01/24 06:12:16;;;;;;;;;;;1.30;97.50;;;0.93;100.00;100732.97;5096857;28;19916;-58
2022/01/24 06:14:42;;;;;;;;;;;1.30;97.50;;;0.91;100.00;100732.16;5097206;28;20373;-58
2022/01/24 06:17:08;;;;;;;;;;;1.40;97.60;;;1.06;100.00;100741.31;5097253;28;19976;-58
2022/01/24 06:19:33;;;;;;;;;;;1.40;97.60;;;0.99;100.00;100744.78;5096761;28;19920;-57
2022/01/24 06:21:59;;;;;;;;;;;1.30;97.60;;;1.01;100.00;100746.44;5097149;28;19963;-57
2022/01/24 06:24:25;;;;;;;;;;;1.40;97.70;;;0.73;100.00;100691.72;5078867;28;19973;-58
2022/01/24 06:26:51;;;;;;;;;;;1.40;97.90;;;1.13;100.00;100743.75;5097093;28;19934;-57
2022/01/24 06:29:18;;;;;;;;;;;1.40;98.30;;;1.17;100.00;100738.63;5095300;28;19924;-57
2022/01/24 06:31:44;;;;;;;;;;;1.50;98.10;;;1.14;100.00;100740.38;5096924;28;19920;-57
2022/01/24 06:34:10;;;;;;;;;;;1.50;98.10;;;1.28;100.00;100744.44;5078938;28;19989;-57
2022/01/24 06:36:36;;;;;;;;;;;1.50;98.20;;;1.24;100.00;100740.22;5096412;28;20351;-57
2022/01/24 06:39:04;;;;;;;;;;;1.50;98.20;;;0.94;100.00;100694.00;5096620;28;19916;-57
2022/01/24 06:41:33;;;;;;;;;;;1.60;98.30;;;1.33;100.00;100740.09;5061953;28;20262;-57
2022/01/24 06:43:59;;;;;;;;;;;1.60;98.20;;;1.40;100.00;100744.28;5078563;28;19965;-57
2022/01/24 06:46:25;;;;;;;;;;;1.70;98.20;;;1.27;100.00;100732.56;5061293;28;19920;-58
2022/01/24 06:48:51;;;;;;;;;;;1.70;98.10;;;1.33;100.00;100748.56;5078517;28;19958;-57
2022/01/24 06:51:20;;;;;;;;;;;1.70;98.00;;;1.40;100.00;100757.00;5078208;28;19922;-63
2022/01/24 06:53:47;;;;;;;;;;;1.80;98.10;;;1.41;100.00;100751.03;5078669;28;19921;-57
2022/01/24 06:56:13;;;;;;;;;;;1.80;98.10;;;1.42;100.00;100752.72;5062150;28;19920;-57
2022/01/24 06:58:39;;;;;;;;;;;1.80;98.10;;;0.98;100.00;100741.41;5077204;28;19927;-58
2022/01/24 07:01:05;;;;;;;;;;;1.80;98.10;;;1.34;100.00;100759.59;5061732;28;19924;-57
2022/01/24 07:03:31;;;;;;;;;;;1.80;98.10;;;1.25;100.00;100726.66;5095843;28;19920;-57
2022/01/24 07:05:56;;;;;;;;;;;1.80;98.20;;;1.45;100.00;100761.16;5078335;28;19943;-57
2022/01/24 07:08:22;;;;;;;;;;;1.80;98.30;;;1.48;100.00;100778.09;5078033;28;19923;-58
2022/01/24 07:10:48;;;;;;;;;;;1.90;98.40;;;1.22;100.00;100719.09;5096061;28;19927;-57
2022/01/24 07:13:14;;;;;;;;;;;1.90;98.40;;;1.59;100.00;100785.56;5078219;28;19920;-57
2022/01/24 07:15:53;;;;;;;;;;;1.90;98.40;;;1.59;100.00;100791.47;5077922;28;20414;-57
2022/01/24 07:20:57;;;;;;;;;;;2.00;98.50;;;1.50;100.00;100786.50;5096052;28;19950;-57
2022/01/24 07:23:23;;;;;;;;;;;2.00;98.40;;;1.69;100.00;100793.06;5077705;28;19920;-58
2022/01/24 07:25:49;;;;;;;;;;;2.10;98.40;;;1.45;100.00;100756.06;5095605;28;19927;-57
2022/01/24 07:28:15;;;;;;;;;;;2.10;98.30;;;1.72;100.00;100789.63;5095918;28;20336;-57
2022/01/24 07:30:41;;;;;;;;;;;2.10;98.40;;;1.76;100.00;100793.81;5076860;28;19973;-57
2022/01/24 07:33:06;;;;;;;;;;;2.20;98.50;;;1.51;100.00;100743.25;5061019;28;19920;-57
2022/01/24 07:35:32;;;;;;;;;;;2.20;98.60;;;1.45;100.00;100737.41;5060929;28;19923;-57
2022/01/24 07:37:58;;;;;;;;;;;2.20;98.60;;;1.62;100.00;100806.72;5077983;28;20296;-57
2022/01/24 07:40:24;;;;;;;;;;;2.20;98.50;;;1.70;100.00;100796.44;5094438;28;19920;-58
2022/01/24 07:43:08;;;;;;;;;;;2.30;98.40;;;1.85;100.00;100793.69;5095653;28;20010;-57
2022/01/24 07:45:34;;;;;;;;;;;2.30;98.50;;;2.02;100.00;100819.72;5077140;28;19931;-58
2022/01/24 07:48:00;;;;;;;;;;;2.40;98.60;;;2.10;100.00;100820.47;5077343;28;19920;-58
2022/01/24 07:50:26;;;;;;;;;;;2.40;98.50;;;2.19;100.00;100820.31;5094838;28;19920;-64
2022/01/24 07:52:52;;;;;;;;;;;2.60;98.40;;;2.09;100.00;100825.56;5077129;28;19928;-64
2022/01/24 07:55:18;;;;;;;;;;;2.60;98.20;;;1.92;100.00;100819.00;5077300;28;19959;-66
2022/01/24 07:57:43;;;;;;;;;;;2.50;98.20;;;2.05;100.00;100829.88;5076738;28;19990;-65
2022/01/24 08:00:11;;;;;;;;;;;2.50;98.30;;;2.15;100.00;100823.78;5094813;28;19993;-64
2022/01/24 08:02:37;;;;;;;;;;;2.60;98.50;;;2.08;100.00;100823.88;5077104;28;19927;-64
2022/01/24 08:05:04;;;;;;;;;;;2.60;98.60;;;2.21;100.00;100833.88;5077562;28;19916;-64
2022/01/24 08:07:30;;;;;;;;;;;2.60;98.70;;;2.24;100.00;100827.88;5076863;28;19920;-64
2022/01/24 08:09:55;;;;;;;;;;;2.70;98.80;;;2.32;100.00;100822.66;5094354;28;19927;-64
2022/01/24 08:12:22;;;;;;;;;;;2.70;98.90;;;2.42;100.00;100836.94;5076587;28;19942;-65
2022/01/24 08:14:47;;;;;;;;;;;2.80;98.80;;;2.19;100.00;100792.31;5076035;28;19928;-63
2022/01/24 08:17:13;;;;;;;;;;;2.90;98.70;;;2.42;100.00;100826.75;5077664;28;19927;-64
2022/01/24 08:19:39;;;;;;;;;;;2.80;98.60;;;2.18;100.00;100821.19;5095095;28;19927;-64
2022/01/24 08:22:05;;;;;;;;;;;2.80;98.70;;;2.39;100.00;100825.09;5076555;28;19926;-62
2022/01/24 08:24:31;;;;;;;;;;;2.90;98.90;;;2.44;100.00;100820.78;5059735;28;20357;-64
2022/01/24 08:26:57;;;;;;;;;;;2.90;98.90;;;2.59;100.00;100824.78;5076814;28;19920;-62
2022/01/24 08:29:22;;;;;;;;;;;3.00;99.00;;;2.65;100.00;100812.78;5075781;28;19924;-63
2022/01/24 08:31:48;;;;;;;;;;;3.10;99.10;;;2.35;100.00;100761.50;5094610;28;20421;-65
2022/01/24 08:34:14;;;;;;;;;;;3.10;99.00;;;2.44;100.00;100774.09;5059799;28;19921;-65
2022/01/24 08:36:40;;;;;;;;;;;3.20;99.00;;;2.82;100.00;100821.84;5094331;28;19993;-64
2022/01/24 08:39:06;;;;;;;;;;;3.20;99.00;;;2.87;100.00;100814.97;5076450;28;19927;-64
2022/01/24 08:42:24;;;;;;;;;;;3.30;99.00;;;2.99;100.00;100812.19;5093741;28;19927;-63
2022/01/24 08:47:09;;;;;;;;;;;3.50;98.50;;;2.91;100.00;100779.19;5094096;28;19946;-63
2022/01/24 08:49:35;;;;;;;;;;;3.60;98.40;;;3.10;100.00;100797.53;5093770;28;19924;-65
2022/01/24 08:52:01;;;;;;;;;;;3.60;98.50;;;3.26;100.00;100819.31;5094256;28;19965;-65
2022/01/24 08:54:27;;;;;;;;;;;3.60;98.90;;;3.40;100.00;100811.38;5093980;28;20365;-64
2022/01/24 08:56:53;;;;;;;;;;;3.70;98.80;;;3.50;100.00;100810.34;5093895;28;19927;-66
2022/01/24 08:59:19;;;;;;;;;;;3.80;99.00;;;3.91;100.00;100818.81;5075880;28;20391;-64
2022/01/24 09:01:47;;;;;;;;;;;4.10;99.30;;;4.49;100.00;100813.22;5075854;28;19924;-65
2022/01/24 09:04:12;;;;;;;;;;;4.50;99.60;;;5.15;100.00;100820.03;5094116;28;19927;-64
2022/01/24 09:06:38;;;;;;;;;;;5.10;99.90;;;5.44;100.00;100807.25;5093604;28;20288;-64
2022/01/24 09:09:05;;;;;;;;;;;5.70;99.90;;;5.85;100.00;100815.47;5094050;28;20007;-64
2022/01/24 09:11:35;;;;;;;;;;;6.10;98.80;;;6.11;100.00;100803.56;5075772;28;19927;-64
2022/01/24 09:14:02;;;;;;;;;;;6.60;98.10;;;6.50;100.00;100774.97;5059451;28;19921;-64
2022/01/24 09:16:28;;;;;;;;;;;7.30;97.90;;;7.42;100.00;100821.34;5042986;28;19962;-66
2022/01/24 09:18:54;;;;;;;;;;;8.00;97.10;;;7.91;99.28;100817.78;5093558;28;20319;-63
2022/01/24 09:21:20;;;;;;;;;;;8.70;94.90;;;8.13;91.59;100799.81;5075405;28;19927;-63
2022/01/24 09:23:45;;;;;;;;;;;9.50;91.20;;;8.33;89.14;100808.44;5075320;28;20251;-64
2022/01/24 09:26:11;;;;;;;;;;;10.00;84.00;;;8.89;82.58;100776.97;5058947;28;19965;-65
2022/01/24 09:28:37;;;;;;;;;;;10.60;77.90;;;9.73;74.28;100819.56;5093100;28;19966;-67
2022/01/24 09:31:03;;;;;;;;;;;11.10;71.90;;;10.65;65.10;100783.31;5075351;28;19931;-66
2022/01/24 09:33:31;;;;;;;;;;;;;;;11.10;62.37;100820.66;5092399;28;20383;-64
2022/01/24 09:35:59;;;;;;;;;;;12.60;64.00;;;11.96;58.99;100812.59;5093799;28;19916;-64
2022/01/24 09:38:30;;;;;;;;;;;12.90;60.70;;;11.80;57.67;100816.03;5093633;28;20388;-64
2022/01/24 09:40:56;;;;;;;;;;;12.90;59.50;;;11.13;57.79;100782.56;5093822;28;19920;-64
2022/01/24 09:43:22;;;;;;;;;;;13.10;59.40;;;11.22;59.13;100820.84;5075671;28;19920;-67
2022/01/24 09:45:48;;;;;;;;;;;13.30;58.90;;;11.47;57.33;100825.56;5075683;28;19931;-66
2022/01/24 09:48:15;;;;;;;;;;;13.50;58.00;;;11.69;56.20;100813.19;5094063;28;20345;-65
2022/01/24 09:50:41;;;;;;;;;;;13.90;57.50;;;11.47;58.33;100830.72;5058639;28;19959;-65
2022/01/24 09:53:06;;;;;;;;;;;14.30;57.50;;;12.11;56.12;100824.69;5042012;28;19985;-66
2022/01/24 09:55:32;;;;;;;;;;;14.70;56.00;;;12.54;53.90;100825.69;5093146;28;19927;-64
2022/01/24 09:57:58;;;;;;;;;;;14.90;54.90;;;11.47;56.51;100825.56;5075336;28;20278;-65
2022/01/24 10:00:25;;;;;;;;;;;14.40;54.10;;;11.51;55.66;100802.97;5075118;28;20377;-66
2022/01/24 10:02:51;;;;;;;;;;;14.40;54.60;;;12.54;52.58;100821.34;5058417;28;19916;-66
2022/01/24 10:05:27;;;;;;;;;;;14.70;53.90;;;12.84;52.31;100826.53;5075396;28;19916;-66
2022/01/24 10:07:54;;;;;;;;;;;14.80;53.30;;;13.15;50.55;100829.91;5093206;28;19966;-63
2022/01/24 10:10:29;;;;;;;;;;;14.70;52.80;;;13.17;50.15;100828.06;5075680;28;20068;-65
2022/01/24 10:18:06;;;;;;;;;;;14.80;52.70;;;13.78;48.94;100822.53;5093096;28;19989;-65
2022/01/24 10:20:33;;;;;;;;;;;15.00;52.40;;;13.20;49.23;100825.28;5058429;28;19922;-64
2022/01/24 10:23:10;;;;;;;;;;;14.60;52.40;;;13.60;48.83;100824.50;5074982;28;19920;-62
2022/01/24 10:25:49;;;;;;;;;;;14.80;52.50;;;12.76;50.44;100820.97;5074693;28;20389;-62
2022/01/24 10:28:25;;;;;;;;;;;14.70;52.90;;;12.64;50.30;100806.13;5075245;28;19985;-63
2022/01/24 10:31:01;;;;;;;;;;;14.30;53.40;;;11.96;51.42;100805.66;5093136;28;19924;-64
2022/01/24 10:33:27;;;;;;;;;;;14.20;53.50;;;12.06;51.54;100806.00;5076451;28;19921;-63
2022/01/24 10:35:53;;;;;;;;;;;13.80;53.60;;;10.68;54.58;100802.09;5078142;28;19920;-63
2022/01/24 10:43:42;;;;;;;;;;;13.10;55.10;;;10.76;54.95;100796.53;5096471;28;20010;-64
2022/01/24 10:46:08;;;;;;;;;;;13.20;54.50;;;11.89;52.90;100785.41;5061958;28;19931;-63
2022/01/24 10:48:35;;;;;;;;;;;13.10;55.60;;;12.09;51.01;100715.28;5096379;28;19978;-64
2022/01/24 10:51:14;;;;;;;;;;;13.40;54.70;;;12.07;50.68;100772.28;5078519;28;20019;-63
2022/01/24 10:53:45;;;;;;;;;;;13.30;53.30;;;11.99;51.07;100735.66;5061480;28;19923;-63
2022/01/24 10:56:26;;;;;;;;;;;13.30;54.40;;;11.58;52.45;100778.47;5096522;28;20277;-63
2022/01/24 10:58:52;;;;;;;;;;;13.20;54.50;;;10.83;54.18;100772.06;5096476;28;19920;-64
2022/01/24 11:01:25;;;;;;;;;;;12.70;54.40;;;11.21;54.73;100777.00;5061519;28;19927;-63
2022/01/24 11:04:05;;;;;;;;;;;12.60;56.20;;;11.70;51.64;100719.16;5078463;28;19915;-65
2022/01/24 11:06:34;;;;;;;;;;;12.80;55.30;;;12.08;52.95;100770.53;5044809;28;19920;-61
2022/01/24 11:09:14;;;;;;;;;;;12.90;55.80;;;11.61;51.48;100719.66;5078558;28;19916;-61
2022/01/24 11:11:40;;;;;;;;;;;13.10;55.20;;;12.11;51.58;100771.19;5095915;28;19920;-60
2022/01/24 11:14:09;;;;;;;;;;;13.00;54.90;;;11.23;53.28;100775.16;5061268;28;19924;-60
2022/01/24 11:16:36;;;;;;;;;;;12.80;55.00;;;11.28;53.57;100747.34;5095838;28;20011;-61
2022/01/24 11:19:03;;;;;;;;;;;12.90;55.40;;;11.64;52.62;100765.19;5061225;28;19999;-61
2022/01/24 11:21:33;;;;;;;;;;;13.00;54.90;;;11.51;53.31;100767.63;5077925;28;20046;-60
2022/01/24 11:24:03;;;;;;;;;;;13.00;55.40;;;11.71;52.03;100718.22;5078566;28;19920;-61
2022/01/24 11:26:29;;;;;;;;;;;13.20;55.20;;;11.61;52.81;100719.66;5061533;28;19924;-61
2022/01/24 11:28:55;;;;;;;;;;;13.30;55.10;;;12.45;52.77;100758.91;5060415;28;19978;-61
2022/01/24 11:31:25;;;;;;;;;;;13.70;55.70;;;13.66;49.06;100738.56;5077000;28;19916;-59
2022/01/24 11:34:16;;;;;;;;;;;14.60;54.60;;;12.37;49.67;100705.00;5060734;28;19916;-60
2022/01/24 11:36:42;;;;;;;;;;;14.70;52.10;;;12.15;50.32;100700.25;5061052;28;19916;-63
2022/01/24 11:39:08;;;;;;;;;;;14.40;52.90;;;13.10;50.43;100754.16;5077579;28;19924;-63
2022/01/24 11:41:37;;;;;;;;;;;14.80;53.80;;;12.98;50.80;100754.91;5077308;28;19920;-64
2022/01/24 11:44:10;;;;;;;;;;;15.30;52.30;;;14.45;46.34;100724.78;5077559;28;19971;-63
2022/01/24 11:46:48;;;;;;;;;;;16.20;51.30;;;14.39;46.57;100745.97;5062240;28;19923;-64
2022/01/24 11:49:18;;;;;;;;;;;16.60;49.30;;;14.65;44.70;100724.28;5095530;28;19964;-63
2022/01/24 11:51:46;;;;;;;;;;;16.80;48.70;;;14.45;45.26;100741.19;5094750;28;19938;-62
2022/01/24 11:55:03;;;;;;;;;;;16.70;48.60;;;13.76;46.39;100759.53;5077329;28;20007;-61
2022/01/24 11:57:50;;;;;;;;;;;16.00;48.40;;;12.25;48.71;100746.28;4998372;28;19932;-61
2022/01/24 12:00:26;;;;;;;;;;;14.70;49.60;;;11.79;50.32;100744.53;4978924;28;20014;-61
2022/01/24 12:02:56;;;;;;;;;;;13.60;51.30;;;10.68;52.55;100695.41;5057001;28;20338;-60
2022/01/24 12:05:53;;;;;;;;;;;12.70;52.90;;;10.71;53.05;100723.63;5094808;28;19920;-60
2022/01/24 12:08:32;;;;;;;;;;;12.10;55.00;;;10.76;54.84;100744.06;5074761;28;19956;-61
2022/01/24 12:11:21;;;;;;;;;;;11.60;56.50;;;10.56;55.81;100737.31;5076163;28;19920;-62
2022/01/24 12:13:53;;;;;;;;;;;11.40;57.60;;;10.21;56.71;100726.22;5094691;28;19924;-62
2022/01/24 12:16:20;;;;;;;;;;;11.10;58.40;;;10.20;57.48;100720.22;5077247;28;19994;-63
2022/01/24 12:18:51;;;;;;;;;;;11.00;59.50;;;9.84;59.27;100727.09;5094553;28;19980;-63
2022/01/24 12:21:20;;;;;;;;;;;10.60;60.40;;;9.42;60.95;100722.22;5060278;28;20019;-61
2022/01/24 12:23:53;;;;;;;;;;;10.30;61.40;;;9.32;62.50;100731.28;5094614;28;19951;-62
2022/01/24 12:26:20;;;;;;;;;;;10.10;62.80;;;9.24;64.29;100725.63;5060355;28;19920;-62
2022/01/24 12:28:48;;;;;;;;;;;9.90;65.00;;;9.35;64.44;100731.13;5093755;28;19921;-62
2022/01/24 12:31:26;;;;;;;;;;;10.00;64.90;;;9.22;64.51;100717.16;5060246;28;19920;-63
2022/01/24 12:33:54;;;;;;;;;;;10.00;64.90;;;9.01;65.82;100718.94;5094656;28;19943;-62
2022/01/24 12:36:47;;;;;;;;;;;9.80;65.60;;;8.56;67.83;100714.91;5094766;28;19970;-63
2022/01/24 12:39:14;;;;;;;;;;;9.60;66.20;;;8.59;69.58;100714.75;5094455;28;19916;-63
2022/01/24 12:41:45;;;;;;;;;;;9.40;66.70;;;8.48;69.50;100687.84;5093838;28;19966;-63
2022/01/24 12:46:17;;;;;;;;;;;9.30;67.50;;;8.60;69.14;100707.88;5076931;28;19920;-62
2022/01/24 12:46:57;;;;;;;;;;;9.30;68.10;;;8.24;73.33;100700.78;5078680;28;20274;-60
2022/01/24 12:49:22;;;;;;;;;;;9.10;67.90;;;8.18;74.27;100674.50;5094501;28;19922;-64
2022/01/24 12:51:49;;;;;;;;;;;9.00;68.80;;;8.43;75.40;100692.31;5075805;28;20024;-62
2022/01/24 12:54:16;;;;;;;;;;;9.10;70.00;;;8.02;73.92;100643.44;5094125;28;19930;-62
2022/01/24 12:56:42;;;;;;;;;;;9.00;69.70;;;8.00;75.98;100678.66;5058757;28;19923;-61
2022/01/24 12:59:08;;;;;;;;;;;8.80;69.70;;;8.02;76.20;100687.97;5075999;28;20005;-63
2022/01/24 13:01:37;;;;;;;;;;;8.70;70.60;;;8.02;78.77;100677.69;5093833;28;20331;-64
2022/01/24 13:04:12;;;;;;;;;;;8.60;71.40;;;7.58;79.88;100653.78;5075949;28;19923;-63